Time;durP1;ratioP1;P1;durP2;ratioP2;P2;SDS_P1;SDS_P2;PMS_P1;PMS_P2;Temp;Humidity;BMP_temperature;BMP_pressure;BME280_temperature;BME280_humidity;BME280_pressure;Samples;Min_cycle;Max_cycle;Signal;HPM_P1;HPM_P2
2021/08/14 00:02:25;;;;;;;17.77;5.32;;;;;;;;;;5029519;28;40554;-80
2021/08/14 00:04:51;;;;;;;23.63;5.82;;;;;;;;;;5021826;28;38996;-78
2021/08/14 00:07:18;;;;;;;20.83;5.03;;;;;;;;;;5027581;28;38439;-79
2021/08/14 00:09:44;;;;;;;18.30;5.25;;;;;;;;;;5029169;28;36931;-78
2021/08/14 00:12:10;;;;;;;15.73;4.88;;;;;;;;;;5030181;28;38551;-78
2021/08/14 00:14:37;;;;;;;18.58;5.78;;;;;;;;;;5032056;28;39603;-78
2021/08/14 00:17:04;;;;;;;18.80;5.03;;;;;;;;;;5023703;28;38180;-78
2021/08/14 00:19:31;;;;;;;16.33;5.57;;;;;;;;;;5021350;28;37450;-79
2021/08/14 00:21:58;;;;;;;15.73;5.35;;;;;;;;;;5032328;28;40049;-78
2021/08/14 00:24:24;;;;;;;19.40;6.03;;;;;;;;;;5024995;28;39393;-78
2021/08/14 00:26:51;;;;;;;22.15;6.25;;;;;;;;;;5032156;28;38644;-78
2021/08/14 00:29:18;;;;;;;24.15;6.35;;;;;;;;;;5033041;28;36108;-78
2021/08/14 00:31:44;;;;;;;14.68;5.45;;;;;;;;;;5025080;28;37520;-78
2021/08/14 00:34:11;;;;;;;20.75;6.90;;;;;;;;;;5017727;28;38243;-78
2021/08/14 00:36:37;;;;;;;21.52;5.97;;;;;;;;;;5018889;28;37185;-79
2021/08/14 00:39:04;;;;;;;19.80;6.22;;;;;;;;;;5024034;28;37384;-78
2021/08/14 00:41:30;;;;;;;17.77;5.68;;;;;;;;;;5027702;28;38820;-78
2021/08/14 00:44:02;;;;;;;14.43;5.22;;;;;;;;;;5031705;28;39507;-78
2021/08/14 00:46:31;;;;;;;22.73;5.90;;;;;;;;;;5030755;28;49417;-78
2021/08/14 00:48:58;;;;;;;16.65;5.60;;;;;;;;;;5021341;28;35540;-79
2021/08/14 00:51:25;;;;;;;16.67;5.30;;;;;;;;;;5017873;28;39676;-78
2021/08/14 00:53:51;;;;;;;20.33;5.50;;;;;;;;;;5025982;28;39974;-79
2021/08/14 00:56:25;;;;;;;21.27;6.80;;;;;;;;;;5028199;28;38781;-78
2021/08/14 00:58:55;;;;;;;24.20;7.03;;;;;;;;;;5025686;28;37492;-78
2021/08/14 01:01:22;;;;;;;20.55;6.00;;;;;;;;;;5019465;28;37872;-78
2021/08/14 01:03:49;;;;;;;22.85;7.13;;;;;;;;;;5036294;28;38995;-78
2021/08/14 01:06:19;;;;;;;22.23;6.15;;;;;;;;;;5018090;28;39242;-78
2021/08/14 01:08:46;;;;;;;20.77;5.95;;;;;;;;;;5028787;28;36381;-78
2021/08/14 01:11:13;;;;;;;16.63;5.55;;;;;;;;;;5030990;28;39175;-78
2021/08/14 01:13:41;;;;;;;20.85;6.25;;;;;;;;;;5029944;28;39115;-79
2021/08/14 01:16:07;;;;;;;21.30;5.80;;;;;;;;;;5029439;28;37521;-79
2021/08/14 01:18:34;;;;;;;22.33;6.68;;;;;;;;;;5028696;28;36957;-79
2021/08/14 01:21:00;;;;;;;24.40;5.90;;;;;;;;;;5023240;28;39145;-79
2021/08/14 01:23:27;;;;;;;20.65;7.00;;;;;;;;;;5027460;28;42144;-80
2021/08/14 01:26:00;;;;;;;22.25;7.00;;;;;;;;;;5023373;28;39181;-78
2021/08/14 01:28:27;;;;;;;15.95;6.70;;;;;;;;;;5022446;28;38094;-79
2021/08/14 01:30:53;;;;;;;20.85;5.90;;;;;;;;;;5002643;28;39174;-79
2021/08/14 01:33:19;;;;;;;17.45;5.30;;;;;;;;;;5017773;28;39139;-78
2021/08/14 01:35:46;;;;;;;17.88;5.22;;;;;;;;;;5026411;28;38745;-78
2021/08/14 01:38:13;;;;;;;17.33;5.13;;;;;;;;;;5024533;28;36672;-78
2021/08/14 01:40:39;;;;;;;20.02;6.47;;;;;;;;;;5027137;28;39767;-78
2021/08/14 01:43:05;;;;;;;14.52;5.05;;;;;;;;;;5028359;28;40007;-78
2021/08/14 01:45:32;;;;;;;15.85;5.28;;;;;;;;;;5031816;28;39255;-78
2021/08/14 01:47:58;;;;;;;21.08;5.65;;;;;;;;;;5030106;28;37471;-78
2021/08/14 01:50:25;;;;;;;19.67;5.82;;;;;;;;;;5014708;28;40214;-78
2021/08/14 01:52:54;;;;;;;21.17;6.60;;;;;;;;;;5016986;28;39448;-78
2021/08/14 01:55:21;;;;;;;15.73;5.57;;;;;;;;;;5015997;28;38754;-78
2021/08/14 01:57:48;;;;;;;13.32;5.47;;;;;;;;;;5030232;28;37526;-78
2021/08/14 02:00:14;;;;;;;16.17;6.07;;;;;;;;;;5027259;28;40202;-78
2021/08/14 02:02:41;;;;;;;16.20;5.78;;;;;;;;;;5023288;28;37938;-78
2021/08/14 02:05:07;;;;;;;23.05;6.05;;;;;;;;;;5023576;28;39151;-78
2021/08/14 02:07:34;;;;;;;15.77;5.65;;;;;;;;;;5012672;28;36913;-78
2021/08/14 02:10:00;;;;;;;17.05;5.20;;;;;;;;;;5026552;28;39504;-78
2021/08/14 02:12:26;;;;;;;22.92;6.78;;;;;;;;;;5019798;28;39408;-78
2021/08/14 02:14:53;;;;;;;21.25;5.88;;;;;;;;;;5029903;28;39117;-78
2021/08/14 02:17:19;;;;;;;19.08;5.32;;;;;;;;;;5014856;28;37552;-79
2021/08/14 02:19:46;;;;;;;12.88;5.22;;;;;;;;;;5020704;28;40087;-78
2021/08/14 02:22:12;;;;;;;15.80;5.45;;;;;;;;;;5023970;28;39096;-78
2021/08/14 02:24:38;;;;;;;19.88;6.30;;;;;;;;;;5024358;28;38369;-78
2021/08/14 02:27:05;;;;;;;25.15;7.43;;;;;;;;;;5009179;28;37656;-78
2021/08/14 02:29:33;;;;;;;25.77;6.60;;;;;;;;;;5016331;28;39489;-78
2021/08/14 02:32:00;;;;;;;23.17;7.55;;;;;;;;;;5006142;28;39579;-77
2021/08/14 02:34:27;;;;;;;18.90;7.82;;;;;;;;;;5009654;28;41533;-78
2021/08/14 02:36:53;;;;;;;21.00;7.47;;;;;;;;;;5016571;28;37250;-78
2021/08/14 02:39:20;;;;;;;24.48;7.47;;;;;;;;;;5025875;28;39294;-78
2021/08/14 02:41:46;;;;;;;20.85;7.53;;;;;;;;;;5023501;28;38617;-78
2021/08/14 02:44:12;;;;;;;31.73;8.45;;;;;;;;;;5025471;28;39629;-78
2021/08/14 02:46:39;;;;;;;18.38;7.03;;;;;;;;;;5000392;28;36887;-78
2021/08/14 02:49:05;;;;;;;18.63;7.07;;;;;;;;;;5005905;28;40605;-78
2021/08/14 02:51:31;;;;;;;19.70;7.30;;;;;;;;;;5028602;28;39563;-78
2021/08/14 02:53:58;;;;;;;18.83;7.75;;;;;;;;;;5025549;28;39420;-78
2021/08/14 02:56:24;;;;;;;15.75;6.55;;;;;;;;;;5024191;28;36704;-78
2021/08/14 02:58:50;;;;;;;20.95;7.05;;;;;;;;;;5012294;28;40687;-78
2021/08/14 03:01:19;;;;;;;20.25;7.05;;;;;;;;;;5022704;28;38345;-78
2021/08/14 03:03:46;;;;;;;18.05;7.13;;;;;;;;;;5026211;28;38851;-78
2021/08/14 03:06:22;;;;;;;29.98;8.45;;;;;;;;;;5022728;28;37676;-78
2021/08/14 03:08:48;;;;;;;20.35;7.15;;;;;;;;;;5018155;28;38851;-78
2021/08/14 03:11:15;;;;;;;25.60;8.38;;;;;;;;;;5013800;28;39092;-78
2021/08/14 03:13:41;;;;;;;22.70;7.78;;;;;;;;;;5009277;28;39477;-78
2021/08/14 03:16:07;;;;;;;18.85;6.88;;;;;;;;;;5014447;28;37538;-78
2021/08/14 03:18:34;;;;;;;21.10;6.75;;;;;;;;;;5022449;28;39411;-78
2021/08/14 03:21:00;;;;;;;22.92;8.20;;;;;;;;;;5008193;28;38810;-77
2021/08/14 03:23:26;;;;;;;24.35;8.00;;;;;;;;;;5030441;28;39069;-78
2021/08/14 03:25:53;;;;;;;26.33;7.90;;;;;;;;;;5025673;28;37086;-78
2021/08/14 03:28:19;;;;;;;19.63;7.43;;;;;;;;;;5037868;28;39470;-79
2021/08/14 03:30:45;;;;;;;26.35;7.68;;;;;;;;;;5021055;28;39604;-78
2021/08/14 03:33:12;;;;;;;19.98;7.43;;;;;;;;;;5031873;28;39912;-78
2021/08/14 03:35:38;;;;;;;21.27;7.68;;;;;;;;;;5035436;28;40210;-79
2021/08/14 03:38:04;;;;;;;18.65;7.47;;;;;;;;;;5033999;28;38741;-79
2021/08/14 03:40:31;;;;;;;27.33;8.55;;;;;;;;;;5034914;28;39779;-78
2021/08/14 03:42:57;;;;;;;23.10;8.05;;;;;;;;;;5023180;28;38960;-78
2021/08/14 03:45:24;;;;;;;31.05;9.35;;;;;;;;;;5036250;28;37838;-79
2021/08/14 03:47:50;;;;;;;31.42;9.35;;;;;;;;;;5016001;28;39070;-78
2021/08/14 03:50:17;;;;;;;21.00;8.20;;;;;;;;;;5019364;28;39492;-78
2021/08/14 03:52:43;;;;;;;22.92;8.02;;;;;;;;;;5034797;28;39155;-78
2021/08/14 03:55:09;;;;;;;20.90;8.23;;;;;;;;;;5029922;28;36554;-78
2021/08/14 03:57:36;;;;;;;19.30;7.55;;;;;;;;;;5032024;28;38627;-79
2021/08/14 04:00:04;;;;;;;19.02;7.88;;;;;;;;;;5034392;28;39985;-78
2021/08/14 04:02:30;;;;;;;27.73;9.55;;;;;;;;;;5010581;28;39143;-78
2021/08/14 04:04:57;;;;;;;25.15;8.70;;;;;;;;;;5026906;28;36931;-79
2021/08/14 04:07:23;;;;;;;23.10;8.57;;;;;;;;;;5018348;28;39193;-78
2021/08/14 04:09:49;;;;;;;21.40;8.05;;;;;;;;;;5030601;28;38557;-78
2021/08/14 04:12:18;;;;;;;23.80;9.07;;;;;;;;;;5032380;28;40003;-78
2021/08/14 04:14:45;;;;;;;26.63;9.38;;;;;;;;;;5039050;28;36721;-79
2021/08/14 04:17:11;;;;;;;19.25;8.30;;;;;;;;;;5039659;28;37663;-78
2021/08/14 04:19:38;;;;;;;21.45;9.43;;;;;;;;;;5031207;28;38154;-78
2021/08/14 04:22:04;;;;;;;23.08;9.10;;;;;;;;;;5033178;28;38989;-78
2021/08/14 04:24:30;;;;;;;28.00;11.05;;;;;;;;;;5019974;28;37342;-78
2021/08/14 04:26:57;;;;;;;25.58;9.27;;;;;;;;;;5020728;28;38970;-78
2021/08/14 04:29:23;;;;;;;25.83;9.38;;;;;;;;;;5026569;28;40121;-79
2021/08/14 04:31:51;;;;;;;25.95;9.13;;;;;;;;;;5020817;28;37725;-78
2021/08/14 04:34:18;;;;;;;28.13;9.57;;;;;;;;;;5011358;28;36847;-78
2021/08/14 04:36:44;;;;;;;36.90;10.57;;;;;;;;;;5022108;28;38578;-79
2021/08/14 04:39:11;;;;;;;27.77;10.88;;;;;;;;;;5004192;28;38043;-78
2021/08/14 04:41:37;;;;;;;27.85;10.85;;;;;;;;;;5024301;28;38412;-78
2021/08/14 04:44:04;;;;;;;35.85;11.75;;;;;;;;;;5022117;28;37279;-78
2021/08/14 04:46:30;;;;;;;29.42;10.52;;;;;;;;;;5023096;28;40173;-79
2021/08/14 04:48:56;;;;;;;34.80;10.45;;;;;;;;;;5011973;28;37939;-78
2021/08/14 04:51:23;;;;;;;24.92;10.60;;;;;;;;;;5023924;28;38350;-79
2021/08/14 04:53:49;;;;;;;28.20;10.35;;;;;;;;;;5019300;28;36481;-79
2021/08/14 04:56:16;;;;;;;23.85;9.32;;;;;;;;;;5020796;28;39128;-78
2021/08/14 04:58:42;;;;;;;20.38;9.27;;;;;;;;;;5022541;28;39794;-78
2021/08/14 05:01:09;;;;;;;26.83;10.57;;;;;;;;;;5016706;28;41409;-78
2021/08/14 05:03:35;;;;;;;31.70;10.65;;;;;;;;;;5024538;28;37177;-79
2021/08/14 05:06:02;;;;;;;27.13;10.20;;;;;;;;;;5019632;28;39131;-79
2021/08/14 05:08:29;;;;;;;21.42;9.88;;;;;;;;;;5021245;28;48842;-78
2021/08/14 05:10:55;;;;;;;24.25;9.60;;;;;;;;;;5019969;28;37762;-78
2021/08/14 05:13:21;;;;;;;32.47;11.20;;;;;;;;;;5025160;28;35495;-78
2021/08/14 05:15:48;;;;;;;30.20;10.68;;;;;;;;;;5012178;28;39582;-78
2021/08/14 05:18:16;;;;;;;34.95;12.02;;;;;;;;;;5008690;28;38017;-78
2021/08/14 05:20:43;;;;;;;27.42;10.77;;;;;;;;;;5018786;28;38586;-77
2021/08/14 05:23:09;;;;;;;26.10;10.63;;;;;;;;;;5007539;28;38657;-78
2021/08/14 05:25:36;;;;;;;33.38;11.52;;;;;;;;;;5020423;28;39399;-78
2021/08/14 05:28:02;;;;;;;32.25;10.93;;;;;;;;;;5026264;28;39134;-77
2021/08/14 05:30:28;;;;;;;25.90;10.98;;;;;;;;;;5011374;28;38678;-78
2021/08/14 05:32:55;;;;;;;34.83;12.10;;;;;;;;;;5024615;28;37357;-78
2021/08/14 05:35:21;;;;;;;28.83;11.02;;;;;;;;;;5021515;28;39310;-78
2021/08/14 05:37:48;;;;;;;31.40;11.32;;;;;;;;;;5022410;28;38669;-78
2021/08/14 05:40:14;;;;;;;35.60;11.30;;;;;;;;;;5023665;28;38499;-78
2021/08/14 05:42:40;;;;;;;34.45;11.20;;;;;;;;;;5025777;28;37090;-78
2021/08/14 05:45:07;;;;;;;34.30;10.57;;;;;;;;;;5025024;28;40530;-78
2021/08/14 05:47:33;;;;;;;30.10;10.18;;;;;;;;;;5005609;28;38842;-79
2021/08/14 05:50:00;;;;;;;39.10;11.63;;;;;;;;;;5025974;28;39307;-78
2021/08/14 05:52:26;;;;;;;28.27;11.63;;;;;;;;;;5009984;28;34485;-78
2021/08/14 05:54:52;;;;;;;38.33;13.02;;;;;;;;;;5006717;28;37748;-79
2021/08/14 05:57:19;;;;;;;33.67;12.45;;;;;;;;;;5012781;28;39504;-79
2021/08/14 05:59:45;;;;;;;32.50;11.52;;;;;;;;;;5022356;28;37150;-78
2021/08/14 06:02:11;;;;;;;32.15;11.35;;;;;;;;;;5005818;28;37288;-79
2021/08/14 06:04:38;;;;;;;33.85;13.68;;;;;;;;;;5019477;28;39731;-79
2021/08/14 06:07:04;;;;;;;37.63;12.85;;;;;;;;;;5019279;28;39635;-78
2021/08/14 06:09:31;;;;;;;33.80;13.77;;;;;;;;;;5025560;28;39474;-79
2021/08/14 06:11:59;;;;;;;44.75;13.95;;;;;;;;;;5015801;28;38114;-79
2021/08/14 06:14:26;;;;;;;38.13;13.77;;;;;;;;;;5023962;28;39061;-78
2021/08/14 06:16:52;;;;;;;33.33;13.05;;;;;;;;;;5020667;28;40141;-78
2021/08/14 06:19:19;;;;;;;32.78;13.52;;;;;;;;;;5028458;28;38227;-78
2021/08/14 06:21:45;;;;;;;42.00;14.35;;;;;;;;;;5005848;28;37838;-78
2021/08/14 06:24:12;;;;;;;37.55;13.68;;;;;;;;;;5018861;28;39129;-78
2021/08/14 06:26:38;;;;;;;40.97;15.23;;;;;;;;;;5026749;28;38887;-79
2021/08/14 06:29:04;;;;;;;40.20;14.05;;;;;;;;;;5009097;28;38198;-78
2021/08/14 06:31:31;;;;;;;38.25;15.27;;;;;;;;;;5013444;28;37116;-78
2021/08/14 06:33:57;;;;;;;37.00;14.98;;;;;;;;;;5027685;28;39724;-79
2021/08/14 06:36:23;;;;;;;46.28;16.02;;;;;;;;;;5022354;28;39473;-78
2021/08/14 06:38:50;;;;;;;41.78;16.02;;;;;;;;;;5029143;28;39529;-78
2021/08/14 06:41:16;;;;;;;37.17;14.02;;;;;;;;;;5017697;28;36973;-78
2021/08/14 06:43:42;;;;;;;35.92;13.73;;;;;;;;;;5026680;28;39938;-79
2021/08/14 06:46:09;;;;;;;38.67;14.30;;;;;;;;;;5017935;28;38818;-78
2021/08/14 06:48:36;;;;;;;35.47;14.23;;;;;;;;;;5030549;28;39168;-78
2021/08/14 06:51:02;;;;;;;38.08;15.18;;;;;;;;;;5044312;28;37574;-77
2021/08/14 06:53:29;;;;;;;33.05;13.63;;;;;;;;;;5045312;28;39119;-79
2021/08/14 06:55:56;;;;;;;30.63;13.45;;;;;;;;;;5036146;28;39448;-77
2021/08/14 06:58:22;;;;;;;33.08;13.05;;;;;;;;;;5013048;28;37808;-77
2021/08/14 07:00:48;;;;;;;34.83;13.50;;;;;;;;;;5011956;28;37828;-78
2021/08/14 07:03:18;;;;;;;35.88;13.55;;;;;;;;;;5010783;28;39118;-77
2021/08/14 07:05:44;;;;;;;35.33;14.45;;;;;;;;;;5025981;28;38698;-77
2021/08/14 07:08:10;;;;;;;38.35;15.68;;;;;;;;;;5021970;28;39394;-77
2021/08/14 07:10:37;;;;;;;38.55;13.80;;;;;;;;;;5024900;28;38189;-77
2021/08/14 07:13:03;;;;;;;34.42;13.25;;;;;;;;;;5027264;28;39051;-78
2021/08/14 07:15:30;;;;;;;38.70;15.52;;;;;;;;;;5027890;28;39021;-78
2021/08/14 07:17:56;;;;;;;37.40;14.52;;;;;;;;;;5023150;28;39583;-78
2021/08/14 07:20:22;;;;;;;42.85;15.35;;;;;;;;;;5025631;28;37593;-75
2021/08/14 07:22:49;;;;;;;31.60;12.88;;;;;;;;;;5021245;28;38730;-78
2021/08/14 07:25:15;;;;;;;35.25;13.48;;;;;;;;;;4987420;28;39241;-77
2021/08/14 07:27:42;;;;;;;40.17;15.88;;;;;;;;;;5011724;28;40108;-77
2021/08/14 07:30:09;;;;;;;30.90;13.80;;;;;;;;;;4992439;28;37001;-78
2021/08/14 07:32:36;;;;;;;35.65;14.55;;;;;;;;;;5006731;28;40027;-78
2021/08/14 07:35:03;;;;;;;34.67;12.77;;;;;;;;;;4991915;28;38779;-78
2021/08/14 07:37:29;;;;;;;43.67;14.18;;;;;;;;;;5007093;28;47150;-77
2021/08/14 07:39:55;;;;;;;29.90;11.30;;;;;;;;;;4981327;28;38127;-78
2021/08/14 07:42:22;;;;;;;40.35;13.50;;;;;;;;;;4988628;28;38015;-79
2021/08/14 07:44:48;;;;;;;37.30;13.77;;;;;;;;;;5006356;28;40104;-81
2021/08/14 07:47:15;;;;;;;30.00;12.75;;;;;;;;;;4983551;28;37921;-80
2021/08/14 07:49:42;;;;;;;34.08;13.25;;;;;;;;;;4983989;28;36860;-79
2021/08/14 07:52:09;;;;;;;30.02;13.27;;;;;;;;;;4990393;28;20074;-78
2021/08/14 07:54:36;;;;;;;29.75;12.35;;;;;;;;;;5003129;28;39515;-79
2021/08/14 07:57:02;;;;;;;31.77;12.10;;;;;;;;;;5013875;28;37929;-78
2021/08/14 07:59:29;;;;;;;31.73;12.18;;;;;;;;;;5009589;28;36372;-77
2021/08/14 08:01:55;;;;;;;37.47;11.88;;;;;;;;;;5052039;23;38102;-79
2021/08/14 08:04:21;;;;;;;31.15;11.18;;;;;;;;;;5076897;28;40074;-81
2021/08/14 08:06:50;;;;;;;26.73;12.55;;;;;;;;;;5073923;28;40189;-80
2021/08/14 08:09:17;;;;;;;33.42;13.05;;;;;;;;;;5202656;22;37642;-81
2021/08/14 08:11:43;;;;;;;30.20;12.57;;;;;;;;;;5040731;28;35664;-81
2021/08/14 08:14:10;;;;;;;31.30;12.60;;;;;;;;;;5869368;22;37709;-81
2021/08/14 08:16:36;;;;;;;35.00;13.82;;;;;;;;;;5106453;23;35211;-81
2021/08/14 08:19:17;;;;;;;40.90;14.52;;;;;;;;;;5062109;28;35891;-80
2021/08/14 08:21:43;;;;;;;31.80;12.57;;;;;;;;;;5043043;28;38004;-81
2021/08/14 08:24:09;;;;;;;32.45;12.45;;;;;;;;;;5048335;28;38012;-81
2021/08/14 08:26:42;;;;;;;29.23;10.82;;;;;;;;;;5038236;28;37772;-82
2021/08/14 08:29:08;;;;;;;30.40;11.52;;;;;;;;;;5050857;28;37894;-81
2021/08/14 08:31:35;;;;;;;30.60;11.75;;;;;;;;;;5046390;28;38654;-81
2021/08/14 08:34:01;;;;;;;29.08;11.07;;;;;;;;;;5061901;28;38523;-81
2021/08/14 08:36:29;;;;;;;30.35;11.63;;;;;;;;;;5041790;28;47193;-80
2021/08/14 08:38:55;;;;;;;34.78;12.15;;;;;;;;;;5401253;23;35789;-80
2021/08/14 08:41:21;;;;;;;34.78;10.98;;;;;;;;;;5248688;23;37837;-80
2021/08/14 08:43:50;;;;;;;38.15;12.65;;;;;;;;;;5026855;28;37834;-80
2021/08/14 08:48:53;;;;;;;33.30;12.38;;;;;;;;;;5387361;22;20049;-82
2021/08/14 08:51:23;;;;;;;29.27;11.32;;;;;;;;;;5085772;28;38708;-83
2021/08/14 08:53:55;;;;;;;31.27;11.43;;;;;;;;;;5074935;28;39503;-82
2021/08/14 08:56:21;;;;;;;32.45;10.80;;;;;;;;;;5090419;28;38019;-82
2021/08/14 08:58:48;;;;;;;28.10;10.55;;;;;;;;;;5110074;28;36921;-83
2021/08/14 09:01:15;;;;;;;23.52;9.23;;;;;;;;;;5087266;28;39020;-82
2021/08/14 09:03:43;;;;;;;25.25;9.20;;;;;;;;;;5093288;28;40227;-81
2021/08/14 09:06:11;;;;;;;23.13;8.05;;;;;;;;;;5076146;28;40426;-81
2021/08/14 09:08:37;;;;;;;28.15;9.07;;;;;;;;;;5078716;28;38240;-80
2021/08/14 09:11:07;;;;;;;28.15;9.20;;;;;;;;;;5090781;28;37497;-79
2021/08/14 09:13:34;;;;;;;25.08;8.77;;;;;;;;;;5086056;28;38612;-80
2021/08/14 09:21:29;;;;;;;24.40;9.27;;;;;;;;;;5082741;22;20018;-79
2021/08/14 09:26:54;;;;;;;21.25;7.93;;;;;;;;;;5953795;23;20201;-79
2021/08/14 09:29:35;;;;;;;19.50;6.85;;;;;;;;;;5021292;28;36848;-78
2021/08/14 09:32:03;;;;;;;23.67;7.78;;;;;;;;;;5039307;28;39910;-78
2021/08/14 09:34:32;;;;;;;21.55;7.40;;;;;;;;;;5046706;28;50256;-78
2021/08/14 09:37:01;;;;;;;22.15;7.07;;;;;;;;;;5046114;28;39864;-78
2021/08/14 09:39:28;;;;;;;20.45;6.18;;;;;;;;;;5041314;28;49334;-78
2021/08/14 09:42:07;;;;;;;19.42;6.45;;;;;;;;;;5040157;28;39918;-78
2021/08/14 09:44:37;;;;;;;20.60;5.80;;;;;;;;;;5016013;28;48228;-78
2021/08/14 09:47:11;;;;;;;20.20;6.53;;;;;;;;;;5011365;28;37219;-77
2021/08/14 09:49:57;;;;;;;17.77;5.57;;;;;;;;;;5023100;28;35554;-79
2021/08/14 09:52:25;;;;;;;19.20;5.65;;;;;;;;;;5036079;28;39378;-79
2021/08/14 09:54:52;;;;;;;16.15;5.63;;;;;;;;;;5036256;28;39937;-78
2021/08/14 09:57:19;;;;;;;12.32;4.72;;;;;;;;;;5043566;28;39116;-79
2021/08/14 09:59:47;;;;;;;17.63;5.68;;;;;;;;;;5045889;28;39096;-79
2021/08/14 10:02:18;;;;;;;19.48;5.53;;;;;;;;;;5046693;28;39290;-78
2021/08/14 10:04:46;;;;;;;18.77;5.43;;;;;;;;;;5026791;28;38522;-80
2021/08/14 10:07:18;;;;;;;17.10;5.50;;;;;;;;;;5041216;28;38994;-78
2021/08/14 10:09:49;;;;;;;16.88;4.82;;;;;;;;;;5020763;28;36141;-79
2021/08/14 10:12:22;;;;;;;15.73;4.70;;;;;;;;;;5028784;28;39340;-80
2021/08/14 10:15:01;;;;;;;18.45;4.90;;;;;;;;;;5037974;28;39503;-80
2021/08/14 10:17:28;;;;;;;17.58;5.15;;;;;;;;;;5046213;28;39020;-79
2021/08/14 10:19:59;;;;;;;13.05;4.57;;;;;;;;;;5049847;28;38001;-80
2021/08/14 10:22:26;;;;;;;10.53;4.33;;;;;;;;;;5032181;28;37734;-78
2021/08/14 10:25:00;;;;;;;13.63;4.32;;;;;;;;;;5042277;28;39251;-79
2021/08/14 10:27:27;;;;;;;10.52;3.90;;;;;;;;;;5021491;28;39902;-78
2021/08/14 10:30:00;;;;;;;13.93;3.95;;;;;;;;;;5049923;28;36739;-80
2021/08/14 10:32:37;;;;;;;12.77;4.13;;;;;;;;;;5048368;28;38765;-79
2021/08/14 10:35:19;;;;;;;11.18;4.35;;;;;;;;;;5025456;28;40203;-78
2021/08/14 10:37:50;;;;;;;13.55;4.18;;;;;;;;;;4978306;28;50083;-78
2021/08/14 10:40:19;;;;;;;12.77;4.20;;;;;;;;;;4986681;28;36177;-78
2021/08/14 10:42:53;;;;;;;10.52;4.10;;;;;;;;;;4995890;28;40194;-78
2021/08/14 10:45:20;;;;;;;11.38;3.75;;;;;;;;;;5045574;28;38870;-78
2021/08/14 10:47:50;;;;;;;12.10;4.13;;;;;;;;;;5042610;28;37843;-78
2021/08/14 10:50:31;;;;;;;12.52;4.22;;;;;;;;;;5023640;28;37490;-78
2021/08/14 10:53:23;;;;;;;10.40;4.43;;;;;;;;;;5028044;28;40342;-78
2021/08/14 10:56:03;;;;;;;13.25;3.95;;;;;;;;;;5019767;28;49504;-78
2021/08/14 10:58:38;;;;;;;8.65;3.85;;;;;;;;;;5038390;28;38874;-78
2021/08/14 11:01:06;;;;;;;9.95;3.83;;;;;;;;;;5026380;28;37083;-78
2021/08/14 11:03:39;;;;;;;8.93;3.35;;;;;;;;;;5037162;28;39393;-78
2021/08/14 11:06:25;;;;;;;11.50;4.13;;;;;;;;;;5011840;28;39193;-77
2021/08/14 11:09:11;;;;;;;8.15;3.33;;;;;;;;;;5020410;28;38380;-79
2021/08/14 11:11:43;;;;;;;10.35;4.70;;;;;;;;;;5016913;28;47301;-78
2021/08/14 11:14:11;;;;;;;8.60;3.17;;;;;;;;;;5010147;28;40758;-79
2021/08/14 11:19:33;;;;;;;9.20;3.53;;;;;;;;;;5252421;22;20171;-80
2021/08/14 11:22:28;;;;;;;9.40;4.03;;;;;;;;;;5028915;28;35936;-80
2021/08/14 11:25:32;;;;;;;8.73;3.67;;;;;;;;;;4992817;28;50182;-79
2021/08/14 11:28:12;;;;;;;6.43;3.25;;;;;;;;;;5531047;22;40322;-82
2021/08/14 11:33:15;;;;;;;9.35;4.10;;;;;;;;;;5274210;22;20174;-82
2021/08/14 11:36:03;;;;;;;8.63;3.85;;;;;;;;;;5241731;23;38103;-80
2021/08/14 11:38:43;;;;;;;8.63;4.03;;;;;;;;;;5075961;28;47433;-80
2021/08/14 11:41:24;;;;;;;7.90;3.63;;;;;;;;;;5057067;28;39839;-79
2021/08/14 11:47:12;;;;;;;5.78;3.42;;;;;;;;;;5279301;22;20089;-80
2021/08/14 11:52:15;;;;;;;10.82;3.70;;;;;;;;;;5536466;22;20045;-79
2021/08/14 11:58:06;;;;;;;8.98;3.67;;;;;;;;;;5306269;22;50364;-79
2021/08/14 12:00:35;;;;;;;14.35;4.18;;;;;;;;;;5390535;22;48886;-79
2021/08/14 12:05:53;;;;;;;9.57;3.80;;;;;;;;;;5368128;23;20061;-77
2021/08/14 12:11:27;;;;;;;6.95;3.53;;;;;;;;;;5079190;28;39966;-78
2021/08/14 12:16:39;;;;;;;7.75;3.95;;;;;;;;;;4966804;26;20048;-79
2021/08/14 12:21:42;;;;;;;8.70;3.80;;;;;;;;;;5811655;22;20029;-80
2021/08/14 12:24:27;;;;;;;6.82;3.40;;;;;;;;;;5043473;28;37677;-80
2021/08/14 12:35:39;;;;;;;7.47;3.72;;;;;;;;;;5044914;28;49612;-81
2021/08/14 12:38:10;;;;;;;5.22;3.42;;;;;;;;;;5047633;28;37007;-81
2021/08/14 12:40:41;;;;;;;8.55;3.58;;;;;;;;;;5045817;28;39094;-80
2021/08/14 12:43:15;;;;;;;6.95;3.85;;;;;;;;;;5049146;28;38103;-80
2021/08/14 12:45:42;;;;;;;8.25;3.10;;;;;;;;;;5046622;28;38614;-81
2021/08/14 12:48:16;;;;;;;8.32;3.80;;;;;;;;;;5048445;28;36274;-81
2021/08/14 12:50:43;;;;;;;9.18;3.90;;;;;;;;;;5046635;28;40142;-79
2021/08/14 12:53:16;;;;;;;5.82;3.33;;;;;;;;;;5028535;28;38329;-79
2021/08/14 12:55:43;;;;;;;6.63;2.95;;;;;;;;;;5045405;28;39801;-80
2021/08/14 12:58:10;;;;;;;6.38;2.97;;;;;;;;;;5033713;28;37144;-81
2021/08/14 13:00:37;;;;;;;6.43;2.95;;;;;;;;;;5049820;28;40079;-81
2021/08/14 13:03:09;;;;;;;6.63;3.03;;;;;;;;;;5048799;28;39480;-77
2021/08/14 13:05:35;;;;;;;7.63;2.58;;;;;;;;;;5052694;28;38416;-80
2021/08/14 13:08:02;;;;;;;4.75;2.65;;;;;;;;;;5072555;22;37103;-78
2021/08/14 13:10:29;;;;;;;7.70;3.22;;;;;;;;;;5063301;28;47513;-80
2021/08/14 13:12:56;;;;;;;4.60;3.10;;;;;;;;;;5068741;28;39197;-79
2021/08/14 13:15:26;;;;;;;6.55;3.42;;;;;;;;;;5077514;28;37440;-80
2021/08/14 13:17:53;;;;;;;5.43;2.80;;;;;;;;;;5059157;28;36716;-79
2021/08/14 13:38:43;;;;;;;6.97;3.95;;;;;;;;;;5132474;22;20055;-79
2021/08/14 13:41:21;;;;;;;8.10;4.07;;;;;;;;;;5075610;28;39802;-80
2021/08/14 13:46:50;;;;;;;6.03;3.45;;;;;;;;;;5140842;22;50970;-81
2021/08/14 13:49:17;;;;;;;5.90;3.60;;;;;;;;;;5033853;28;36422;-80
2021/08/14 13:51:50;;;;;;;9.85;3.95;;;;;;;;;;5033416;28;36990;-80
2021/08/14 13:54:32;;;;;;;7.55;3.70;;;;;;;;;;5054904;28;37481;-79
2021/08/14 13:57:05;;;;;;;7.80;3.40;;;;;;;;;;5358317;22;38120;-80
2021/08/14 14:02:59;;;;;;;6.57;3.45;;;;;;;;;;5055897;28;50510;-80
2021/08/14 14:05:41;;;;;;;10.18;2.97;;;;;;;;;;5086173;28;40522;-80
2021/08/14 14:18:54;;;;;;;7.95;3.53;;;;;;;;;;5205353;22;20037;-83
2021/08/14 14:29:36;;;;;;;4.82;3.22;;;;;;;;;;5936630;22;20052;-79
2021/08/14 14:32:14;;;;;;;5.53;3.13;;;;;;;;;;5057118;28;37318;-79
2021/08/14 14:34:40;;;;;;;7.72;3.28;;;;;;;;;;5055204;28;39072;-78
2021/08/14 14:37:07;;;;;;;4.55;3.20;;;;;;;;;;5035398;28;39391;-79
2021/08/14 14:39:35;;;;;;;8.50;3.33;;;;;;;;;;5036540;28;38412;-79
2021/08/14 14:42:05;;;;;;;5.45;3.15;;;;;;;;;;5041987;28;36108;-79
2021/08/14 14:44:32;;;;;;;5.85;3.17;;;;;;;;;;5048491;28;46992;-78
2021/08/14 14:46:58;;;;;;;4.85;2.83;;;;;;;;;;5042691;28;37926;-78
2021/08/14 14:49:25;;;;;;;4.05;2.50;;;;;;;;;;5042761;28;38164;-78
2021/08/14 14:51:51;;;;;;;2.85;2.25;;;;;;;;;;5047658;28;36966;-79
2021/08/14 14:54:19;;;;;;;5.10;2.80;;;;;;;;;;5043505;28;37009;-79
2021/08/14 14:56:49;;;;;;;4.82;2.63;;;;;;;;;;5069932;28;39934;-80
2021/08/14 14:59:16;;;;;;;6.13;2.40;;;;;;;;;;5036804;28;38976;-78
2021/08/14 15:01:59;;;;;;;6.43;2.38;;;;;;;;;;5063842;28;36317;-79
2021/08/14 15:04:48;;;;;;;4.70;2.30;;;;;;;;;;5072194;28;39588;-80
2021/08/14 15:10:22;;;;;;;3.15;1.63;;;;;;;;;;5357293;22;40162;-81
2021/08/14 15:15:55;;;;;;;2.22;1.60;;;;;;;;;;5093501;23;50471;-80
2021/08/14 15:18:29;;;;;;;3.33;1.80;;;;;;;;;;5077787;28;40252;-80
2021/08/14 15:20:59;;;;;;;4.35;1.70;;;;;;;;;;5088278;28;38654;-79
2021/08/14 15:23:27;;;;;;;6.25;2.20;;;;;;;;;;5090060;28;36807;-79
2021/08/14 15:25:57;;;;;;;3.60;1.52;;;;;;;;;;5087006;28;39011;-80
2021/08/14 15:28:24;;;;;;;4.20;1.77;;;;;;;;;;5082946;28;39352;-79
2021/08/14 15:30:51;;;;;;;2.30;1.45;;;;;;;;;;5082546;28;37896;-79
2021/08/14 15:33:21;;;;;;;1.95;0.80;;;;;;;;;;5087318;28;37579;-79
2021/08/14 15:35:48;;;;;;;2.90;1.48;;;;;;;;;;5083332;28;38533;-79
2021/08/14 15:38:16;;;;;;;2.95;1.77;;;;;;;;;;5093686;28;38791;-79
2021/08/14 15:40:53;;;;;;;2.83;1.77;;;;;;;;;;5078806;27;39674;-80
2021/08/14 15:50:00;;;;;;;2.08;1.20;;;;;;;;;;5061900;28;50718;-79
2021/08/14 15:52:27;;;;;;;2.50;1.48;;;;;;;;;;5056279;28;38456;-78
2021/08/14 15:54:56;;;;;;;2.40;1.77;;;;;;;;;;5086607;27;37431;-79
2021/08/14 15:57:35;;;;;;;3.17;1.95;;;;;;;;;;5079626;28;40202;-80
2021/08/14 16:10:26;;;;;;;1.98;1.45;;;;;;;;;;5710954;22;19920;-78
2021/08/14 16:12:54;;;;;;;1.70;1.50;;;;;;;;;;5037964;28;39216;-78
2021/08/14 16:15:23;;;;;;;2.78;1.52;;;;;;;;;;5052373;28;36197;-79
2021/08/14 16:17:50;;;;;;;2.60;1.30;;;;;;;;;;5055524;28;40230;-77
2021/08/14 16:20:16;;;;;;;2.30;1.20;;;;;;;;;;5063561;28;38144;-78
2021/08/14 16:22:43;;;;;;;3.22;1.27;;;;;;;;;;5065101;28;37569;-78
2021/08/14 16:25:10;;;;;;;3.20;1.58;;;;;;;;;;5062267;28;36870;-78
2021/08/14 16:27:36;;;;;;;2.60;1.45;;;;;;;;;;5063782;28;38483;-77
2021/08/14 16:30:03;;;;;;;2.65;1.40;;;;;;;;;;5078904;28;38021;-78